Time;durP1;ratioP1;P1;durP2;ratioP2;P2;SDS_P1;SDS_P2;PMS_P1;PMS_P2;Temp;Humidity;BMP_temperature;BMP_pressure;BME280_temperature;BME280_humidity;BME280_pressure;Samples;Min_cycle;Max_cycle;Signal;HPM_P1;HPM_P2
2023/06/14 00:02:02;;;;;;;1.20;0.60;;;15.30;99.90;;;;;;4975387;28;20247;-77
2023/06/14 00:04:36;;;;;;;1.70;0.77;;;15.30;99.90;;;;;;4975455;28;20659;-76
2023/06/14 00:07:13;;;;;;;2.85;1.20;;;15.40;99.90;;;;;;4975500;28;20226;-75
2023/06/14 00:09:45;;;;;;;2.20;0.70;;;15.40;99.90;;;;;;4975689;28;20192;-74
2023/06/14 00:12:16;;;;;;;1.48;0.60;;;15.50;99.90;;;;;;4975506;28;20192;-73
2023/06/14 00:14:47;;;;;;;1.92;0.50;;;15.50;99.90;;;;;;4975592;28;20198;-77
2023/06/14 00:17:18;;;;;;;1.85;0.60;;;15.60;99.90;;;;;;4975494;28;20197;-74
2023/06/14 00:19:51;;;;;;;1.38;0.52;;;15.60;99.90;;;;;;4975437;28;20251;-73
2023/06/14 00:22:24;;;;;;;2.30;0.50;;;15.70;99.90;;;;;;4975386;28;20648;-74
2023/06/14 00:24:55;;;;;;;1.92;0.55;;;15.80;99.90;;;;;;4975770;28;20267;-72
2023/06/14 00:27:26;;;;;;;0.93;0.50;;;15.80;99.90;;;;;;4975730;28;20216;-73
2023/06/14 00:29:58;;;;;;;3.42;0.70;;;15.80;99.90;;;;;;4975359;28;20281;-76
2023/06/14 00:32:29;;;;;;;2.00;0.40;;;15.80;99.90;;;;;;4975184;28;20275;-76
2023/06/14 00:35:02;;;;;;;0.77;0.60;;;15.90;99.90;;;;;;4975119;28;20568;-75
2023/06/14 00:37:33;;;;;;;0.75;0.40;;;15.90;99.90;;;;;;4975068;28;20189;-74
2023/06/14 00:40:04;;;;;;;0.80;0.50;;;16.00;99.90;;;;;;4975456;28;20188;-75
2023/06/14 00:42:36;;;;;;;1.65;0.45;;;16.20;99.90;;;;;;4975291;28;20192;-76
2023/06/14 00:45:07;;;;;;;2.60;0.52;;;16.30;99.90;;;;;;4974963;28;20199;-75
2023/06/14 00:47:40;;;;;;;1.92;0.40;;;16.30;99.90;;;;;;4974704;28;20224;-75
2023/06/14 00:50:15;;;;;;;2.30;0.40;;;16.30;99.90;;;;;;4974890;28;20214;-76
2023/06/14 00:52:46;;;;;;;2.03;0.50;;;16.30;99.90;;;;;;4974834;28;20188;-75
2023/06/14 00:55:17;;;;;;;0.70;0.30;;;16.40;99.90;;;;;;4974782;28;20192;-75
2023/06/14 00:57:49;;;;;;;0.43;0.22;;;16.40;99.90;;;;;;4974711;28;20200;-74
2023/06/14 01:00:20;;;;;;;1.40;0.50;;;16.40;99.90;;;;;;4974470;28;20196;-75
2023/06/14 01:02:51;;;;;;;1.42;0.47;;;16.50;99.90;;;;;;4974519;28;20188;-73
2023/06/14 01:05:25;;;;;;;0.73;0.40;;;16.60;99.90;;;;;;4974634;28;20196;-74
2023/06/14 01:08:08;;;;;;;0.60;0.35;;;16.60;99.90;;;;;;4974795;28;20227;-74
2023/06/14 01:10:52;;;;;;;2.67;0.43;;;16.70;99.90;;;;;;4974673;28;20255;-76
2023/06/14 01:13:27;;;;;;;3.55;0.40;;;16.70;99.90;;;;;;4974570;28;20254;-73
2023/06/14 01:15:59;;;;;;;0.70;0.32;;;16.80;99.90;;;;;;4974766;28;20198;-74
2023/06/14 01:18:32;;;;;;;0.57;0.40;;;16.90;99.90;;;;;;4974117;28;20198;-77
2023/06/14 01:21:06;;;;;;;0.60;0.35;;;16.90;99.90;;;;;;4974864;28;20196;-75
2023/06/14 01:23:39;;;;;;;2.05;0.40;;;17.00;99.90;;;;;;4974440;28;20198;-72
2023/06/14 01:26:10;;;;;;;2.38;0.40;;;17.00;99.90;;;;;;4974422;28;20188;-75
2023/06/14 01:28:42;;;;;;;0.43;0.40;;;17.00;99.90;;;;;;4974439;28;20196;-74
2023/06/14 01:31:16;;;;;;;1.15;0.35;;;17.00;99.90;;;;;;4974468;28;20202;-73
2023/06/14 01:33:48;;;;;;;1.00;0.30;;;17.10;99.90;;;;;;4974310;28;20242;-73
2023/06/14 01:36:21;;;;;;;0.85;0.38;;;17.20;99.90;;;;;;4974400;28;20589;-75
2023/06/14 01:38:56;;;;;;;2.53;1.42;;;17.30;99.90;;;;;;4974650;28;20193;-74
2023/06/14 01:41:27;;;;;;;1.20;0.40;;;17.40;99.90;;;;;;4974292;28;20227;-76
2023/06/14 01:43:59;;;;;;;3.75;0.50;;;17.50;99.90;;;;;;4974672;28;20272;-76
2023/06/14 01:46:30;;;;;;;4.95;0.55;;;17.50;99.90;;;;;;4974086;28;20295;-74
2023/06/14 01:49:02;;;;;;;2.28;0.40;;;17.60;99.90;;;;;;4974753;28;20188;-76
2023/06/14 01:51:33;;;;;;;2.03;0.55;;;17.70;99.90;;;;;;4974245;28;20581;-78
2023/06/14 01:54:06;;;;;;;1.02;0.25;;;17.80;99.90;;;;;;4974279;28;20203;-74
2023/06/14 01:56:37;;;;;;;2.88;0.50;;;17.80;99.90;;;;;;4974209;28;20192;-74
2023/06/14 01:59:09;;;;;;;1.00;0.43;;;17.60;99.90;;;;;;4997920;23;20238;-75
2023/06/14 02:01:40;;;;;;;1.88;0.40;;;17.60;99.90;;;;;;4973753;28;20215;-77
2023/06/14 02:04:11;;;;;;;1.48;0.50;;;17.70;99.90;;;;;;4974075;28;20228;-76
2023/06/14 02:06:42;;;;;;;3.25;0.40;;;17.80;99.90;;;;;;4973994;28;20218;-76
2023/06/14 02:09:15;;;;;;;2.47;0.30;;;17.90;99.90;;;;;;4974114;28;20197;-75
2023/06/14 02:11:46;;;;;;;0.70;0.30;;;17.90;99.90;;;;;;4974047;28;20323;-83
2023/06/14 02:14:17;;;;;;;2.83;0.35;;;17.90;99.90;;;;;;4973913;28;20651;-74
2023/06/14 02:16:50;;;;;;;1.98;0.30;;;17.90;99.90;;;;;;4974031;28;20200;-74
2023/06/14 02:19:22;;;;;;;1.30;0.40;;;17.90;99.90;;;;;;4974768;28;20196;-76
2023/06/14 02:21:54;;;;;;;0.63;0.30;;;18.00;99.90;;;;;;4973994;28;20275;-81
2023/06/14 02:24:27;;;;;;;2.95;0.47;;;17.90;99.90;;;;;;4973956;28;20215;-76
2023/06/14 02:26:58;;;;;;;0.75;0.30;;;17.80;99.90;;;;;;4973816;28;20220;-76
2023/06/14 02:29:29;;;;;;;1.95;0.40;;;17.80;99.90;;;;;;4973733;28;20204;-75
2023/06/14 02:32:00;;;;;;;1.52;0.50;;;17.80;99.90;;;;;;4976485;28;20196;-77
2023/06/14 02:34:32;;;;;;;1.60;0.30;;;17.70;99.90;;;;;;4977336;28;20189;-74
2023/06/14 02:37:04;;;;;;;1.77;0.40;;;17.70;99.90;;;;;;4977269;28;20243;-75
2023/06/14 02:39:37;;;;;;;1.45;0.50;;;17.80;99.90;;;;;;4977304;28;20200;-72
2023/06/14 02:42:10;;;;;;;1.05;0.40;;;17.90;99.90;;;;;;4977736;28;20197;-75
2023/06/14 02:44:41;;;;;;;2.03;0.50;;;17.90;99.90;;;;;;4977493;28;20196;-74
2023/06/14 02:47:12;;;;;;;0.80;0.30;;;17.90;99.90;;;;;;4977013;28;20220;-78
2023/06/14 02:49:43;;;;;;;3.03;0.30;;;17.90;99.90;;;;;;4977078;28;20192;-81
2023/06/14 02:52:14;;;;;;;2.58;0.50;;;18.00;99.90;;;;;;4977299;28;20534;-76
2023/06/14 02:54:47;;;;;;;1.00;0.30;;;18.10;99.90;;;;;;4978009;28;20199;-74
2023/06/14 02:57:19;;;;;;;1.50;0.30;;;18.20;99.90;;;;;;4977066;28;20197;-77
2023/06/14 02:59:50;;;;;;;0.70;0.40;;;18.20;99.90;;;;;;4976530;28;20609;-77
2023/06/14 03:02:21;;;;;;;1.65;0.45;;;18.30;99.90;;;;;;4977195;28;20193;-79
2023/06/14 03:04:52;;;;;;;1.92;0.50;;;18.30;99.90;;;;;;4977475;28;20192;-78
2023/06/14 03:07:25;;;;;;;1.40;0.32;;;18.40;99.90;;;;;;4976688;28;20303;-77
2023/06/14 03:09:58;;;;;;;1.67;0.50;;;18.50;99.90;;;;;;4976695;28;20193;-74
2023/06/14 03:12:29;;;;;;;1.40;0.40;;;18.40;99.90;;;;;;4976402;28;20203;-75
2023/06/14 03:15:01;;;;;;;1.00;0.30;;;18.30;99.90;;;;;;4976651;28;20658;-76
2023/06/14 03:17:33;;;;;;;2.22;0.40;;;18.20;99.90;;;;;;4976830;28;20251;-83
2023/06/14 03:20:05;;;;;;;1.13;0.40;;;18.20;99.90;;;;;;4976752;28;20276;-82
2023/06/14 03:22:37;;;;;;;1.95;0.30;;;18.20;99.90;;;;;;4976384;28;20275;-78
2023/06/14 03:25:11;;;;;;;1.25;0.30;;;18.30;99.90;;;;;;4976392;28;20238;-74
2023/06/14 03:27:42;;;;;;;1.85;0.32;;;18.30;99.90;;;;;;4976150;28;20242;-74
2023/06/14 03:30:14;;;;;;;2.78;0.60;;;18.30;99.90;;;;;;4976747;28;20223;-78
2023/06/14 03:32:45;;;;;;;0.80;0.30;;;18.30;99.90;;;;;;4976862;28;20202;-82
2023/06/14 03:35:17;;;;;;;0.95;0.40;;;18.30;99.90;;;;;;4976919;28;20612;-76
2023/06/14 03:37:49;;;;;;;0.93;0.40;;;18.30;99.90;;;;;;4977106;28;20201;-73
2023/06/14 03:40:26;;;;;;;1.65;0.50;;;18.20;99.90;;;;;;4976163;28;20659;-74
2023/06/14 03:42:57;;;;;;;0.73;0.60;;;18.30;99.90;;;;;;4975772;28;20199;-75
2023/06/14 03:45:28;;;;;;;1.73;0.30;;;18.40;99.90;;;;;;4976136;28;20192;-73
2023/06/14 03:48:00;;;;;;;3.05;0.68;;;18.50;99.90;;;;;;4976012;28;20714;-75
2023/06/14 03:50:32;;;;;;;2.30;0.47;;;18.50;99.90;;;;;;4978460;28;20196;-73
2023/06/14 03:53:03;;;;;;;0.95;0.20;;;18.60;99.90;;;;;;4976362;28;20199;-73
2023/06/14 03:55:37;;;;;;;1.27;0.40;;;18.50;99.90;;;;;;4975838;28;20247;-74
2023/06/14 03:58:08;;;;;;;1.10;0.40;;;18.50;99.90;;;;;;4975681;28;20223;-75
2023/06/14 04:00:40;;;;;;;1.73;0.50;;;18.40;99.90;;;;;;4976181;28;20219;-74
2023/06/14 04:03:13;;;;;;;2.03;0.40;;;18.50;99.90;;;;;;4975989;28;20211;-79
2023/06/14 04:05:44;;;;;;;1.73;0.40;;;18.60;99.90;;;;;;4975739;28;20658;-81
2023/06/14 04:08:16;;;;;;;0.60;0.28;;;18.60;99.90;;;;;;4975620;28;20221;-78
2023/06/14 04:10:49;;;;;;;1.20;0.50;;;18.60;99.90;;;;;;4975379;28;20276;-78
2023/06/14 04:13:20;;;;;;;1.83;0.50;;;18.60;99.90;;;;;;4976041;28;20631;-73
2023/06/14 04:15:51;;;;;;;1.48;0.40;;;18.50;99.90;;;;;;4975548;28;20189;-76
2023/06/14 04:18:23;;;;;;;1.73;0.50;;;18.50;99.90;;;;;;4975474;28;20204;-73
2023/06/14 04:20:56;;;;;;;0.80;0.43;;;18.60;99.90;;;;;;4975670;28;20188;-73
2023/06/14 04:23:28;;;;;;;0.57;0.25;;;18.60;99.90;;;;;;4975175;28;20196;-74
2023/06/14 04:26:02;;;;;;;1.90;0.50;;;18.50;99.90;;;;;;4975097;28;20266;-73
2023/06/14 04:28:37;;;;;;;2.75;0.45;;;18.50;99.90;;;;;;4975254;28;20226;-73
2023/06/14 04:31:09;;;;;;;1.55;0.50;;;18.40;99.90;;;;;;4975434;28;20196;-77
2023/06/14 04:33:43;;;;;;;1.17;0.40;;;18.40;99.90;;;;;;4975288;28;20196;-75
2023/06/14 04:36:17;;;;;;;1.17;0.65;;;18.40;99.90;;;;;;4975428;28;20203;-82
2023/06/14 04:38:49;;;;;;;1.60;0.35;;;18.40;99.90;;;;;;4975148;28;20191;-76
2023/06/14 04:41:22;;;;;;;1.92;0.30;;;18.40;99.90;;;;;;4974891;28;20188;-73
2023/06/14 04:43:53;;;;;;;1.50;0.35;;;18.40;99.90;;;;;;4975358;28;20196;-77
2023/06/14 04:46:25;;;;;;;1.33;0.50;;;18.40;99.90;;;;;;4977349;28;20192;-81
2023/06/14 04:48:56;;;;;;;1.85;0.50;;;18.50;99.90;;;;;;4975645;28;20224;-76
2023/06/14 04:51:29;;;;;;;2.63;0.60;;;18.40;99.90;;;;;;4974881;28;20215;-76
2023/06/14 04:54:01;;;;;;;2.13;0.60;;;18.50;99.90;;;;;;4973915;28;20220;-76
2023/06/14 04:56:34;;;;;;;0.60;0.40;;;18.50;99.90;;;;;;4974707;28;20192;-75
2023/06/14 04:59:06;;;;;;;0.88;0.30;;;18.50;99.90;;;;;;4974671;28;20235;-81
2023/06/14 05:01:37;;;;;;;2.22;0.50;;;18.50;99.90;;;;;;4974901;28;20199;-76
2023/06/14 05:04:08;;;;;;;1.77;0.47;;;18.50;99.90;;;;;;4974811;28;20192;-78
2023/06/14 05:06:39;;;;;;;2.28;0.40;;;18.50;99.90;;;;;;4974695;28;20196;-76
2023/06/14 05:09:10;;;;;;;2.58;0.43;;;18.40;99.90;;;;;;4974438;28;20255;-80
2023/06/14 05:11:44;;;;;;;1.38;0.40;;;18.40;99.90;;;;;;4974592;28;20192;-81
2023/06/14 05:14:15;;;;;;;0.82;0.32;;;18.30;99.90;;;;;;4974656;28;20279;-76
2023/06/14 05:16:48;;;;;;;2.20;0.55;;;18.30;99.90;;;;;;4974625;28;20198;-77
2023/06/14 05:19:20;;;;;;;0.68;0.45;;;18.30;99.90;;;;;;4974598;28;20286;-79
2023/06/14 05:21:51;;;;;;;2.13;0.50;;;18.30;99.90;;;;;;4974496;28;20198;-76
2023/06/14 05:24:23;;;;;;;2.25;0.40;;;18.30;99.90;;;;;;4974290;28;20199;-76
2023/06/14 05:26:56;;;;;;;2.80;0.60;;;18.20;99.90;;;;;;4974450;28;20195;-73
2023/06/14 05:29:28;;;;;;;1.95;0.50;;;18.20;99.90;;;;;;4974377;28;20220;-73
2023/06/14 05:31:59;;;;;;;0.90;0.50;;;18.20;99.90;;;;;;4974782;28;20201;-77
2023/06/14 05:34:30;;;;;;;3.95;0.88;;;18.20;99.90;;;;;;4974407;28;20279;-75
2023/06/14 05:37:01;;;;;;;1.95;0.50;;;18.10;99.90;;;;;;4974148;28;20195;-77
2023/06/14 05:39:32;;;;;;;1.23;0.57;;;18.00;99.90;;;;;;4974380;28;20193;-76
2023/06/14 05:42:06;;;;;;;2.08;0.40;;;18.00;99.90;;;;;;4974883;28;20565;-73
2023/06/14 05:44:37;;;;;;;2.53;0.40;;;18.00;99.90;;;;;;4974376;28;20550;-78
2023/06/14 05:47:08;;;;;;;2.05;0.50;;;17.90;99.90;;;;;;4974289;28;20283;-77
2023/06/14 05:49:39;;;;;;;2.85;0.40;;;17.90;99.90;;;;;;4974158;28;20231;-77
2023/06/14 05:52:12;;;;;;;0.95;0.32;;;17.80;99.90;;;;;;4974108;28;20203;-76
2023/06/14 05:54:44;;;;;;;2.45;0.60;;;17.80;99.90;;;;;;4974272;28;20219;-78
2023/06/14 05:57:17;;;;;;;6.53;0.65;;;17.70;99.90;;;;;;4974320;28;20207;-78
2023/06/14 05:59:48;;;;;;;2.00;0.50;;;17.70;99.90;;;;;;4974050;28;20243;-79
2023/06/14 06:02:19;;;;;;;2.45;0.50;;;17.70;99.90;;;;;;4974305;28;20652;-76
2023/06/14 06:04:50;;;;;;;0.60;0.30;;;17.60;99.90;;;;;;4976035;28;20197;-77
2023/06/14 06:07:21;;;;;;;1.50;0.47;;;17.60;99.90;;;;;;4978141;28;20555;-76
2023/06/14 06:09:52;;;;;;;1.50;0.50;;;17.60;99.90;;;;;;4977844;28;20315;-76
2023/06/14 06:12:26;;;;;;;0.70;0.32;;;17.50;99.90;;;;;;4978234;28;20204;-79
2023/06/14 06:14:57;;;;;;;1.50;0.45;;;17.50;99.90;;;;;;4977878;28;20195;-79
2023/06/14 06:17:29;;;;;;;1.23;0.47;;;17.40;99.90;;;;;;4977816;28;20196;-80
2023/06/14 06:20:00;;;;;;;2.00;0.60;;;17.30;99.90;;;;;;4977656;28;20309;-77
2023/06/14 06:22:31;;;;;;;2.05;0.50;;;17.30;99.90;;;;;;4977435;28;20275;-77
2023/06/14 06:25:02;;;;;;;3.28;0.60;;;17.20;99.90;;;;;;4977581;28;20275;-80
2023/06/14 06:27:35;;;;;;;0.85;0.40;;;17.10;99.90;;;;;;4977516;28;20193;-78
2023/06/14 06:30:07;;;;;;;1.50;0.77;;;17.00;99.90;;;;;;4977562;28;20196;-77
2023/06/14 06:32:38;;;;;;;2.25;0.50;;;17.00;99.90;;;;;;4977514;28;20628;-79
2023/06/14 06:35:10;;;;;;;1.20;0.50;;;16.90;99.90;;;;;;4977359;28;20579;-78
2023/06/14 06:37:41;;;;;;;3.15;0.68;;;16.90;99.90;;;;;;4977560;28;20536;-79
2023/06/14 06:40:13;;;;;;;1.30;0.68;;;16.80;99.90;;;;;;4978162;28;20239;-79
2023/06/14 06:42:46;;;;;;;1.73;0.77;;;16.70;99.90;;;;;;4977414;28;20649;-80
2023/06/14 06:45:17;;;;;;;1.40;0.70;;;16.60;99.90;;;;;;4977293;28;20283;-79
2023/06/14 06:47:48;;;;;;;1.42;0.60;;;16.50;99.90;;;;;;4977175;28;20224;-77
2023/06/14 06:50:22;;;;;;;2.28;0.63;;;16.40;99.90;;;;;;4976959;28;20200;-81
2023/06/14 06:52:54;;;;;;;2.67;0.63;;;16.40;99.90;;;;;;4977186;28;20191;-82
2023/06/14 06:55:25;;;;;;;2.40;0.50;;;16.30;99.90;;;;;;4977170;28;20212;-81
2023/06/14 06:57:59;;;;;;;0.98;0.57;;;16.30;99.90;;;;;;4976841;28;20192;-78
2023/06/14 07:00:30;;;;;;;1.80;0.50;;;16.20;99.90;;;;;;4976971;28;20192;-78
2023/06/14 07:03:03;;;;;;;1.58;0.65;;;16.10;99.90;;;;;;4976955;28;20199;-77
2023/06/14 07:05:34;;;;;;;2.25;0.52;;;16.00;99.90;;;;;;4976850;28;20616;-79
2023/06/14 07:08:06;;;;;;;1.58;0.40;;;16.00;99.90;;;;;;4976848;28;20196;-77
2023/06/14 07:10:37;;;;;;;3.55;0.60;;;15.90;99.90;;;;;;4976869;28;20228;-79
2023/06/14 07:13:10;;;;;;;1.35;0.60;;;15.90;99.90;;;;;;4977624;28;20196;-78
2023/06/14 07:15:41;;;;;;;3.85;0.88;;;15.80;99.90;;;;;;4976694;28;20197;-79
2023/06/14 07:18:13;;;;;;;4.15;0.75;;;15.70;99.90;;;;;;4976296;28;20197;-79
2023/06/14 07:20:44;;;;;;;2.58;0.60;;;15.70;99.90;;;;;;4976462;28;20625;-80
2023/06/14 07:23:15;;;;;;;1.83;0.68;;;15.60;99.90;;;;;;4977058;28;20192;-80
2023/06/14 07:25:46;;;;;;;2.42;0.60;;;15.60;99.90;;;;;;4976558;28;20200;-79
2023/06/14 07:28:19;;;;;;;2.67;0.60;;;15.50;99.90;;;;;;4976508;28;20216;-77
2023/06/14 07:30:50;;;;;;;1.98;0.60;;;15.50;99.90;;;;;;4976476;28;20200;-77
2023/06/14 07:33:21;;;;;;;1.50;0.80;;;15.40;99.90;;;;;;4976374;28;20192;-77
2023/06/14 07:35:53;;;;;;;3.08;0.70;;;15.40;99.90;;;;;;4976435;28;20561;-77
2023/06/14 07:38:25;;;;;;;2.65;0.77;;;15.30;99.90;;;;;;4976399;28;20649;-79
2023/06/14 07:40:55;;;;;;;0.77;0.60;;;15.30;99.90;;;;;;4976612;28;20189;-76
2023/06/14 07:43:28;;;;;;;1.38;0.50;;;15.30;99.90;;;;;;4976310;28;20193;-76
2023/06/14 07:45:59;;;;;;;2.15;0.70;;;15.20;99.90;;;;;;4976266;28;20727;-79
2023/06/14 07:48:30;;;;;;;1.52;0.60;;;15.20;99.90;;;;;;4975908;28;20224;-77
2023/06/14 07:51:01;;;;;;;2.25;0.80;;;15.20;99.90;;;;;;4976023;28;20188;-79
2023/06/14 07:53:32;;;;;;;1.17;0.68;;;15.10;99.90;;;;;;4973760;28;20207;-77
2023/06/14 07:56:03;;;;;;;2.03;0.70;;;15.10;99.90;;;;;;4974194;28;20208;-77
2023/06/14 07:58:35;;;;;;;1.15;0.60;;;15.00;99.90;;;;;;4971660;28;20327;-77
2023/06/14 08:01:07;;;;;;;2.15;0.80;;;15.00;99.90;;;;;;4975186;28;20200;-78
2023/06/14 08:03:38;;;;;;;2.00;0.73;;;15.00;99.90;;;;;;4973900;28;20208;-76
2023/06/14 08:06:10;;;;;;;0.80;0.60;;;14.90;99.90;;;;;;4973812;28;20197;-77
2023/06/14 08:08:41;;;;;;;1.85;0.60;;;14.90;99.90;;;;;;4974783;28;20699;-77
2023/06/14 08:11:12;;;;;;;1.27;0.65;;;14.90;99.90;;;;;;4973658;28;20235;-78
2023/06/14 08:13:44;;;;;;;2.00;0.80;;;14.90;99.90;;;;;;4975018;28;20336;-79
2023/06/14 08:16:15;;;;;;;1.45;0.70;;;14.90;99.90;;;;;;4977651;28;20198;-77
2023/06/14 08:18:46;;;;;;;1.58;0.70;;;14.80;99.90;;;;;;4977694;28;20234;-80
2023/06/14 08:21:17;;;;;;;2.55;0.75;;;14.80;99.90;;;;;;4989668;28;20219;-79
2023/06/14 08:23:48;;;;;;;2.72;1.02;;;14.80;99.90;;;;;;4975491;28;20279;-77
2023/06/14 08:26:19;;;;;;;1.42;0.70;;;14.80;99.90;;;;;;4975591;28;20238;-80
2023/06/14 08:28:52;;;;;;;2.28;0.88;;;14.70;99.90;;;;;;4975922;28;20216;-77
2023/06/14 08:31:23;;;;;;;1.95;0.95;;;14.60;99.90;;;;;;4967069;28;20204;-80
2023/06/14 08:33:54;;;;;;;2.83;0.82;;;14.60;99.90;;;;;;4968204;28;20212;-80
2023/06/14 08:36:25;;;;;;;3.13;1.10;;;14.50;99.90;;;;;;4970067;28;20203;-78
2023/06/14 08:38:56;;;;;;;1.65;0.80;;;14.50;99.90;;;;;;4970143;28;20262;-80
2023/06/14 08:41:29;;;;;;;2.15;0.70;;;14.40;99.90;;;;;;4975330;28;20201;-81
2023/06/14 08:44:01;;;;;;;4.32;1.00;;;14.40;99.90;;;;;;4975828;28;20201;-79
2023/06/14 08:46:36;;;;;;;2.65;0.90;;;14.30;99.90;;;;;;4985995;28;20682;-81
2023/06/14 08:49:07;;;;;;;2.15;0.70;;;14.30;99.90;;;;;;4974257;28;20215;-77
2023/06/14 08:51:40;;;;;;;2.38;0.70;;;14.30;99.90;;;;;;4971915;28;20738;-79
2023/06/14 08:54:13;;;;;;;2.72;1.20;;;14.20;99.90;;;;;;4968681;28;20210;-78
2023/06/14 08:56:44;;;;;;;3.33;1.33;;;14.20;99.90;;;;;;4973422;28;20238;-79
2023/06/14 08:59:18;;;;;;;2.50;1.00;;;14.20;99.90;;;;;;4973547;28;20254;-76
2023/06/14 09:01:49;;;;;;;6.15;1.38;;;14.20;99.90;;;;;;4973912;28;20239;-76
2023/06/14 09:04:21;;;;;;;4.50;1.48;;;14.10;99.90;;;;;;4972596;28;20283;-77
2023/06/14 09:06:54;;;;;;;2.72;1.20;;;14.10;99.90;;;;;;4976458;28;20219;-82
2023/06/14 09:09:26;;;;;;;3.20;1.10;;;14.10;99.90;;;;;;4974051;28;20219;-82
2023/06/14 09:11:57;;;;;;;3.10;1.13;;;14.00;99.90;;;;;;4976132;28;20679;-83
2023/06/14 09:14:30;;;;;;;2.10;0.80;;;14.00;99.90;;;;;;4974633;28;20278;-81
2023/06/14 09:17:00;;;;;;;2.20;0.90;;;14.00;99.90;;;;;;4974671;28;20712;-81
2023/06/14 09:19:32;;;;;;;1.52;0.88;;;14.00;99.90;;;;;;4973726;28;20287;-79
2023/06/14 09:22:03;;;;;;;3.22;0.77;;;13.90;99.90;;;;;;4972686;28;20254;-80
2023/06/14 09:24:34;;;;;;;1.60;0.70;;;13.90;99.90;;;;;;4974726;28;20287;-78
2023/06/14 09:27:07;;;;;;;1.42;0.73;;;13.90;99.90;;;;;;4965591;28;20287;-79
2023/06/14 09:29:41;;;;;;;1.10;0.70;;;13.80;99.90;;;;;;4972171;28;20224;-78
2023/06/14 09:32:12;;;;;;;2.67;0.80;;;13.80;99.90;;;;;;4967149;28;20670;-79
2023/06/14 09:34:42;;;;;;;2.20;0.70;;;13.80;99.90;;;;;;4972003;28;20200;-80
2023/06/14 09:37:13;;;;;;;2.55;1.00;;;13.70;99.90;;;;;;4973570;28;20282;-80
2023/06/14 09:39:53;;;;;;;1.90;0.90;;;13.70;99.90;;;;;;4974391;28;20254;-80
2023/06/14 09:42:25;;;;;;;2.45;1.05;;;13.70;99.90;;;;;;4976919;28;20195;-80
2023/06/14 09:44:59;;;;;;;2.65;1.30;;;13.70;99.90;;;;;;4970559;28;20196;-80
2023/06/14 09:47:30;;;;;;;3.72;1.10;;;13.70;99.90;;;;;;4977118;28;20211;-79
2023/06/14 09:50:01;;;;;;;2.83;1.15;;;13.60;99.90;;;;;;4976323;28;20298;-78
2023/06/14 09:52:32;;;;;;;2.13;1.00;;;13.60;99.90;;;;;;4981670;28;20719;-77
2023/06/14 09:55:09;;;;;;;2.58;1.40;;;13.60;99.90;;;;;;4981403;28;20282;-78
2023/06/14 09:57:40;;;;;;;1.92;1.00;;;13.60;99.90;;;;;;4975076;28;20204;-79
2023/06/14 10:00:15;;;;;;;2.97;0.98;;;13.60;99.90;;;;;;4970798;28;20267;-78
2023/06/14 10:02:52;;;;;;;2.28;0.90;;;13.60;99.90;;;;;;4974972;28;20207;-80
2023/06/14 10:05:24;;;;;;;2.33;0.90;;;13.50;99.90;;;;;;4973387;28;20192;-80
2023/06/14 10:08:01;;;;;;;2.40;0.75;;;13.50;99.90;;;;;;4973569;28;20229;-79
2023/06/14 10:10:33;;;;;;;2.85;0.85;;;13.50;99.90;;;;;;4970181;28;20319;-79
2023/06/14 10:13:04;;;;;;;4.20;1.20;;;13.50;99.90;;;;;;4969690;28;20196;-78
2023/06/14 10:15:41;;;;;;;2.35;1.33;;;13.50;99.90;;;;;;4975168;28;20204;-79
2023/06/14 10:18:24;;;;;;;2.30;1.33;;;13.40;99.90;;;;;;4977118;28;20219;-78
2023/06/14 10:21:04;;;;;;;3.47;1.40;;;13.40;99.90;;;;;;4979034;28;20246;-77
2023/06/14 10:23:40;;;;;;;3.25;1.30;;;13.30;99.90;;;;;;4975663;28;20263;-77
2023/06/14 10:26:11;;;;;;;5.63;1.55;;;13.30;99.90;;;;;;4974104;28;20203;-81
2023/06/14 10:28:42;;;;;;;2.50;1.40;;;13.30;99.90;;;;;;4975576;28;20204;-81
2023/06/14 10:31:16;;;;;;;1.98;1.23;;;13.20;99.90;;;;;;4975800;28;20222;-78
2023/06/14 10:33:58;;;;;;;4.60;1.30;;;13.20;99.90;;;;;;4974766;28;20199;-78
2023/06/14 10:36:31;;;;;;;2.47;1.40;;;13.20;99.90;;;;;;4965216;28;20283;-80
2023/06/14 10:39:08;;;;;;;3.63;1.30;;;13.20;99.90;;;;;;4975348;28;20203;-79
2023/06/14 10:41:40;;;;;;;2.63;1.20;;;13.10;99.90;;;;;;4977218;28;20206;-79
2023/06/14 10:44:36;;;;;;;3.40;1.02;;;13.10;99.90;;;;;;4973060;28;20243;-80
2023/06/14 10:47:12;;;;;;;2.38;1.20;;;13.10;99.90;;;;;;4973499;28;20311;-80
2023/06/14 10:49:48;;;;;;;1.70;1.02;;;13.10;99.90;;;;;;4973494;28;20212;-77
2023/06/14 10:52:20;;;;;;;1.60;1.00;;;13.10;99.90;;;;;;4974674;28;20651;-80
2023/06/14 10:55:06;;;;;;;1.27;0.90;;;13.00;99.90;;;;;;4974041;28;20200;-80
2023/06/14 10:57:37;;;;;;;3.08;1.20;;;12.90;99.90;;;;;;4966671;28;20211;-78
2023/06/14 11:00:21;;;;;;;2.38;1.10;;;12.90;99.90;;;;;;4974581;28;20228;-77
2023/06/14 11:03:32;;;;;;;2.28;1.15;;;12.80;99.90;;;;;;4989184;28;20278;-78
2023/06/14 11:06:16;;;;;;;2.58;0.80;;;12.70;99.90;;;;;;4977674;28;20207;-81
2023/06/14 11:09:14;;;;;;;1.20;0.80;;;12.70;99.90;;;;;;4995405;28;20203;-80
2023/06/14 11:11:47;;;;;;;1.45;0.88;;;12.60;99.90;;;;;;4986609;28;20203;-78
2023/06/14 11:14:18;;;;;;;3.70;1.13;;;12.50;99.90;;;;;;4976927;28;20192;-78
2023/06/14 11:16:52;;;;;;;2.13;1.05;;;12.50;99.90;;;;;;4978366;28;20291;-80
2023/06/14 11:19:25;;;;;;;2.60;1.00;;;12.40;99.90;;;;;;4977448;28;20287;-80
2023/06/14 11:21:58;;;;;;;3.53;1.17;;;12.40;99.90;;;;;;4976798;28;20192;-80
2023/06/14 11:24:29;;;;;;;1.83;0.95;;;12.40;99.90;;;;;;4990792;28;20195;-80
2023/06/14 11:27:00;;;;;;;2.55;1.00;;;12.30;99.90;;;;;;4996170;28;20192;-78
2023/06/14 11:29:33;;;;;;;2.55;0.90;;;12.30;99.90;;;;;;4996344;28;20227;-80
2023/06/14 11:32:04;;;;;;;2.60;0.90;;;12.30;99.90;;;;;;4995984;28;20250;-77
2023/06/14 11:34:35;;;;;;;2.53;1.10;;;12.30;99.90;;;;;;4977635;28;20204;-79
2023/06/14 11:37:09;;;;;;;2.45;1.08;;;12.30;99.90;;;;;;4976388;28;20279;-79
2023/06/14 11:39:45;;;;;;;3.13;1.00;;;12.20;99.90;;;;;;4976105;28;20192;-80
2023/06/14 11:42:18;;;;;;;2.20;1.05;;;12.20;99.90;;;;;;4976354;28;20218;-79
2023/06/14 11:44:50;;;;;;;3.60;1.10;;;12.30;99.90;;;;;;4976296;28;20193;-80
2023/06/14 11:47:21;;;;;;;2.75;0.95;;;12.30;99.90;;;;;;4976142;28;20548;-78
2023/06/14 11:49:52;;;;;;;2.53;1.00;;;12.30;99.90;;;;;;4975846;28;20243;-78
2023/06/14 11:52:26;;;;;;;3.08;1.20;;;12.30;99.90;;;;;;4976133;28;20210;-78
2023/06/14 11:54:58;;;;;;;1.13;0.82;;;12.30;99.90;;;;;;4975873;28;20203;-81
2023/06/14 11:57:30;;;;;;;4.15;1.00;;;12.30;99.90;;;;;;4975918;28;20584;-80
2023/06/14 12:00:04;;;;;;;3.38;1.00;;;12.30;99.90;;;;;;4981937;28;20650;-80
2023/06/14 12:02:35;;;;;;;3.10;1.00;;;12.30;99.90;;;;;;4995036;28;20279;-81
2023/06/14 12:05:10;;;;;;;3.72;0.90;;;12.30;99.90;;;;;;4995447;28;20218;-81
2023/06/14 12:07:45;;;;;;;2.05;0.98;;;12.20;99.90;;;;;;4984739;28;20203;-78
2023/06/14 12:10:18;;;;;;;3.38;0.80;;;12.20;99.90;;;;;;4975733;28;20259;-79
2023/06/14 12:12:49;;;;;;;2.33;0.70;;;12.20;99.90;;;;;;4976719;28;20196;-77
2023/06/14 12:15:20;;;;;;;3.85;0.85;;;12.20;99.90;;;;;;4975815;28;20200;-80
2023/06/14 12:17:52;;;;;;;4.78;1.05;;;12.20;99.90;;;;;;4975633;28;20192;-77
2023/06/14 12:20:24;;;;;;;4.15;0.98;;;12.20;99.90;;;;;;4975614;28;20232;-80
2023/06/14 12:23:02;;;;;;;1.77;0.80;;;12.10;99.90;;;;;;4976164;28;20656;-77
2023/06/14 12:25:35;;;;;;;2.42;0.70;;;12.10;99.90;;;;;;4975433;28;20203;-79
2023/06/14 12:28:09;;;;;;;2.08;0.70;;;12.10;99.90;;;;;;4975455;28;20288;-79
2023/06/14 12:30:41;;;;;;;2.85;0.93;;;12.10;99.90;;;;;;4975314;28;20699;-77
2023/06/14 12:33:12;;;;;;;2.92;0.70;;;12.00;99.90;;;;;;4975392;28;20188;-77
2023/06/14 12:35:43;;;;;;;4.43;0.90;;;12.00;99.90;;;;;;4975328;28;20558;-76
2023/06/14 12:38:16;;;;;;;3.08;0.90;;;12.00;99.90;;;;;;4975093;28;20215;-77
2023/06/14 12:40:48;;;;;;;3.72;0.80;;;11.90;99.90;;;;;;4974987;28;20251;-78
2023/06/14 12:43:19;;;;;;;1.67;0.75;;;11.90;99.90;;;;;;4975279;28;20192;-77
2023/06/14 12:45:50;;;;;;;2.33;0.80;;;11.90;99.90;;;;;;4975259;28;20196;-79
2023/06/14 12:48:21;;;;;;;3.65;0.70;;;11.90;99.90;;;;;;4975245;28;20569;-79
2023/06/14 12:50:53;;;;;;;4.90;0.90;;;12.00;99.90;;;;;;4975088;28;20220;-78
2023/06/14 12:53:26;;;;;;;4.45;0.82;;;12.00;99.90;;;;;;4974902;28;20196;-77
2023/06/14 12:55:57;;;;;;;1.67;0.70;;;12.00;99.90;;;;;;4974981;28;20198;-78
2023/06/14 12:58:28;;;;;;;2.17;0.82;;;12.00;99.90;;;;;;4974537;28;20240;-78
2023/06/14 13:00:59;;;;;;;2.40;0.60;;;12.00;99.90;;;;;;4989517;28;20200;-78
2023/06/14 13:03:30;;;;;;;2.70;0.73;;;12.00;99.90;;;;;;4994339;28;20191;-77
2023/06/14 13:06:02;;;;;;;2.10;0.70;;;12.00;99.90;;;;;;4994726;28;20195;-77
2023/06/14 13:08:34;;;;;;;1.45;0.60;;;12.10;99.90;;;;;;4994779;28;20198;-76
2023/06/14 13:11:05;;;;;;;1.45;0.52;;;12.10;99.90;;;;;;4994662;28;20669;-77
2023/06/14 13:13:37;;;;;;;2.97;0.80;;;12.10;99.90;;;;;;4993947;28;20195;-77
2023/06/14 13:16:08;;;;;;;4.05;0.65;;;12.10;99.90;;;;;;4979445;28;20200;-76